Station: Moss Vale  

  Atmospheric Gas Attenuation - ITU Rec 676-11   ----------------- dB/100km -----------------
Date Time Temp RH % AH g/m3 Dew Point Wind Direction Speed kph Gust kph Barometer mB Rainfall Since 9am 24GHz 47GHz 76GHz 122GHz 134GHz 241GHz
08/05 12:30 12.4 57 6.23 4.1 43 56 1016.9 0 14.6 22.7 31.4 81.9 69.9 238.4
08/05 12:20 12.4 58 6.34 4.4 43 48 1016.9 0 14.8 22.9 31.8 83.0 71.3 243.2
08/05 12:10 11.7 58 6.07 3.7 48 57 1016.9 0 14.3 22.6 31.1 81.0 68.5 233.5
08/05 12:00 11.8 59 6.21 4.1 43 65 1017.1 0 14.6 22.8 31.6 82.3 70.2 239.3
08/05 11:50 12.1 61 6.54 4.8 35 46 1017.4 0 15.3 23.3 32.7 85.4 74.1 252.9
08/05 11:40 11.7 62 6.49 4.7 41 50 1017.4 0 15.2 23.3 32.7 85.3 73.8 252.0
08/05 11:30 11.4 62 6.36 4.4 39 56 1017.5 0 14.9 23.2 32.3 84.3 72.5 247.2
08/05 11:20 11.2 61 6.18 4 44 52 1017.3 0 14.5 22.9 31.7 82.7 70.4 239.9
08/05 11:10 11 64 6.41 4.5 44 54 1017.3 0 15.0 23.3 32.6 85.2 73.4 250.6
08/05 11:00 10.6 64 6.25 4.1 46 65 1017.3 0 14.7 23.2 32.2 84.0 71.8 244.8
08/05 10:50 10.4 64 6.17 3.9 52 63 1017.4 0 14.5 23.1 32.0 83.4 71.0 241.9
08/05 10:40 10.4 65 6.27 4.1 44 59 1017.6 0 14.8 23.3 32.4 84.5 72.2 246.3
08/05 10:30 10.2 64 6.09 3.7 43 57 1017.7 0 14.4 23.1 31.7 82.8 70.2 239.0
08/05 10:20 10.2 65 6.19 3.9 39 61 1017.8 0 14.6 23.2 32.1 83.9 71.4 243.4
08/05 10:10 10 66 6.2 4 43 50 1018 0 14.6 23.3 32.3 84.2 71.8 244.5
08/05 10:00 9.9 67 6.26 4.1 39 52 1017.9 0 14.8 23.4 32.5 84.9 72.6 247.5
08/05 09:50 9.6 68 6.23 4 41 52 1018 0 14.7 23.4 32.5 84.9 72.5 247.1
08/05 09:40 9.3 69 6.2 3.9 44 50 1017.8 0 14.6 23.5 32.5 84.9 72.4 246.7
08/05 09:30 9.4 70 6.33 4.2 35 56 1017.9 0 14.9 23.7 33.0 86.2 74.0 252.2
08/05 09:20 9.2 70 6.25 4 32 35 1018 0 14.8 23.6 32.8 85.6 73.1 249.3
08/05 09:10 8.7 71 6.14 3.7 35 41 1017.9 0 14.5 23.5 32.5 85.0 72.2 245.8
08/05 09:00 8.4 72 6.11 3.7 43 59 1017.6 0 14.5 23.6 32.5 84.9 72.0 245.3
08/05 08:50 8.2 72 6.03 3.5 33 39 1017.5 0 14.3 23.5 32.3 84.3 71.2 242.3
08/05 08:40 7.9 73 6 3.4 41 50 1017.6 0 14.3 23.5 32.3 84.3 71.1 241.9
08/05 08:30 7.8 74 6.04 3.5 37 59 1017.7 0 14.4 23.6 32.5 84.9 71.7 244.0
08/05 08:20 7.6 74 5.96 3.3 41 56 1017.3 0 14.2 23.5 32.3 84.2 70.8 240.9
08/05 08:10 7.2 76 5.97 3.3 35 44 1017.4 0 14.2 23.6 32.5 84.7 71.3 242.6
08/05 08:00 6.9 77 5.93 3.2 32 41 1017.3 0 14.2 23.7 32.4 84.6 71.1 241.7
08/05 07:50 6.6 78 5.89 3 30 44 1017.2 0 14.1 23.7 32.4 84.5 70.8 240.7
08/05 07:40 6.3 79 5.85 2.9 43 56 1016.9 0 14.0 23.7 32.3 84.4 70.5 239.7
08/05 07:30 6.1 80 5.85 2.9 32 46 1016.9 0 14.0 23.7 32.4 84.6 70.7 240.3
08/05 07:20 5.8 80 5.73 2.6 28 37 1016.8 0 13.8 23.6 32.1 83.6 69.4 235.7
08/05 07:10 5.6 80 5.66 2.4 20 20 1016.9 0 13.6 23.5 31.9 83.1 68.6 233.0
08/05 07:00 5.5 81 5.69 2.5 26 37 1017 0 13.7 23.6 32.0 83.5 69.1 234.8
08/05 06:50 5.3 81 5.62 2.3 22 28 1016.9 0 13.6 23.6 31.8 83.0 68.4 232.1
08/05 06:40 5.4 81 5.66 2.4 28 33 1016.8 0 13.6 23.6 31.9 83.3 68.8 233.6
08/05 06:30 5.2 81 5.58 2.2 26 39 1017.1 0 13.5 23.5 31.7 82.7 67.9 230.6
08/05 06:20 5.3 81 5.62 2.3 32 41 1016.9 0 13.6 23.6 31.8 83.0 68.4 232.1
08/05 06:10 5.3 80 5.55 2.1 30 37 1016.9 0 13.4 23.4 31.5 82.2 67.5 228.8
08/05 06:00 5.4 80 5.59 2.2 35 48 1016.8 0 13.5 23.5 31.7 82.6 67.9 230.4
08/05 05:50 5.2 80 5.51 2 32 41 1017 0 13.3 23.4 31.4 81.9 67.0 227.3
08/05 05:40 5 81 5.51 2 22 26 1017.3 0 13.3 23.5 31.5 82.2 67.2 227.9
08/05 05:30 4.9 80 5.4 1.7 17 28 1017.3 0 13.1 23.3 31.1 81.1 65.8 223.1
08/05 05:20 5.1 79 5.41 1.8 20 24 1017.1 0 13.1 23.3 31.1 81.0 65.8 223.0
08/05 05:10 4.9 79 5.34 1.6 30 35 1017.1 0 13.0 23.2 30.9 80.4 65.0 220.3
08/05 05:00 4.9 79 5.34 1.6 28 37 1016.9 0 13.0 23.2 30.9 80.4 65.0 220.3
08/05 04:50 5 78 5.3 1.5 30 37 1016.8 0 12.9 23.1 30.7 79.9 64.4 218.1
08/05 04:40 5.2 78 5.37 1.7 41 52 1016.6 0 13.0 23.2 30.8 80.4 65.2 220.8
08/05 04:30 5 78 5.3 1.5 35 48 1016.5 0 12.9 23.1 30.6 79.9 64.4 218.1
08/05 04:20 5 77 5.24 1.3 35 43 1017 0 12.7 23.0 30.4 79.3 63.6 215.4
08/05 04:10 5.1 76 5.2 1.2 33 43 1017 0 12.7 22.9 30.2 78.7 63.0 213.3
08/05 04:00 5 76 5.17 1.1 35 56 1017 0 12.6 22.9 30.2 78.5 62.7 212.2
08/05 03:50 4.9 76 5.13 1 32 35 1017 0 12.5 22.9 30.0 78.2 62.3 210.7
08/05 03:40 4.7 76 5.07 0.8 24 30 1017.1 0 12.4 22.8 29.9 77.8 61.7 208.5
08/05 03:30 4.7 76 5.07 0.8 24 39 1017.3 0 12.4 22.9 29.9 77.8 61.7 208.5
08/05 03:20 4.7 76 5.07 0.8 22 28 1017.4 0 12.4 22.9 29.9 77.8 61.7 208.5
08/05 03:10 4.8 75 5.03 0.8 26 35 1017.2 0 12.3 22.8 29.7 77.3 61.1 206.4
08/05 03:00 4.9 75 5.07 0.9 30 43 1017.2 0 12.4 22.8 29.8 77.6 61.5 208.0
08/05 02:50 4.8 75 5.03 0.8 28 46 1017.4 0 12.3 22.8 29.7 77.3 61.1 206.4
08/05 02:40 4.8 75 5.03 0.8 22 26 1017.5 0 12.3 22.8 29.7 77.3 61.1 206.5
08/05 02:30 4.9 75 5.07 0.9 32 43 1017.5 0 12.4 22.8 29.8 77.6 61.5 208.0
08/05 02:20 4.9 75 5.07 0.9 28 32 1017.8 0 12.4 22.8 29.8 77.6 61.6 208.1
08/05 02:10 4.6 76 5.03 0.7 24 33 1017.8 0 12.3 22.8 29.8 77.5 61.3 207.0
08/05 02:00 4.5 77 5.07 0.8 26 35 1017.7 0 12.4 22.9 30.0 78.0 61.9 209.1
08/05 01:50 4.6 76 5.03 0.7 28 30 1017.8 0 12.3 22.8 29.8 77.5 61.3 207.0
08/05 01:40 4.5 76 5 0.6 30 35 1017.6 0 12.2 22.8 29.7 77.3 61.0 205.9
08/05 01:30 4.5 76 5 0.6 32 44 1017.7 0 12.2 22.8 29.7 77.3 61.0 205.9
08/05 01:20 4.4 76 4.97 0.6 22 28 1017.9 0 12.2 22.8 29.6 77.1 60.7 204.8
08/05 01:10 4.4 76 4.97 0.6 22 32 1018 0 12.2 22.8 29.6 77.1 60.7 204.8
08/05 01:00 4.5 75 4.93 0.5 30 41 1018.1 0 12.1 22.7 29.4 76.6 60.1 202.8
08/05 00:50 4.4 75 4.9 0.4 28 35 1018.2 0 12.0 22.7 29.4 76.4 59.8 201.7
08/05 00:40 4.2 76 4.9 0.4 24 30 1018.1 0 12.0 22.7 29.4 76.6 59.9 202.2
08/05 00:20 4.1 75 4.8 0.1 35 44 1018.1 0 11.8 22.6 29.1 75.6 58.7 197.9
08/05 00:10 4.1 75 4.8 0.1 24 30 1018.3 0 11.8 22.6 29.1 75.6 58.7 197.9
08/05 00:00 4 74 4.71 -0.2 33 50 1018.4 0 11.6 22.5 28.8 74.8 57.6 194.1
07/05 23:50 4.1 74 4.74 -0.1 39 50 1018.2 0 11.7 22.5 28.8 75.0 57.9 195.2
07/05 23:40 4 74 4.71 -0.2 35 43 1018.2 0 11.6 22.5 28.8 74.8 57.6 194.0
07/05 23:30 4 72 4.58 -0.6 32 52 1018.2 0 11.4 22.3 28.3 73.4 55.9 188.1
07/05 23:20 3.8 72 4.52 -0.8 24 28 1018.3 0 11.2 22.2 28.1 73.0 55.3 185.9
07/05 23:10 3.9 72 4.55 -0.7 24 28 1018.4 0 11.3 22.3 28.2 73.2 55.6 187.1
07/05 23:00 4.1 71 4.55 -0.7 26 41 1018.4 0 11.3 22.2 28.1 73.0 55.5 186.6
07/05 22:50 4.3 69 4.48 -0.9 28 33 1018.4 0 11.1 22.1 27.8 72.1 54.4 183.0
07/05 22:40 4.3 69 4.48 -0.9 28 35 1018.5 0 11.1 22.1 27.8 72.1 54.5 183.0
07/05 22:30 4.2 69 4.45 -1 24 35 1018.4 0 11.1 22.0 27.7 71.9 54.1 181.9
07/05 22:20 4.4 68 4.44 -1 26 30 1018.4 0 11.1 22.0 27.6 71.6 53.9 181.0
07/05 22:10 4.4 69 4.51 -0.8 30 37 1018.4 0 11.2 22.1 27.9 72.3 54.8 184.1
07/05 22:00 4.3 70 4.54 -0.7 28 39 1018.4 0 11.3 22.2 28.0 72.7 55.2 185.7
07/05 21:50 4.3 70 4.54 -0.7 33 43 1018.6 0 11.3 22.2 28.0 72.8 55.2 185.7
07/05 21:40 4.4 70 4.57 -0.6 32 37 1018.6 0 11.3 22.2 28.1 73.0 55.5 186.8
07/05 21:30 4.4 70 4.57 -0.6 32 46 1018.5 0 11.3 22.2 28.1 73.0 55.5 186.8
07/05 21:20 4.5 69 4.54 -0.7 33 41 1018.4 0 11.3 22.1 27.9 72.6 55.1 185.2
07/05 21:10 4.5 69 4.54 -0.7 30 35 1018.4 0 11.3 22.1 27.9 72.6 55.1 185.2
07/05 21:00 4.5 69 4.54 -0.7 32 48 1018.2 0 11.3 22.1 27.9 72.5 55.1 185.2
07/05 20:50 4.7 68 4.53 -0.7 35 43 1018 0 11.2 22.0 27.8 72.2 54.8 184.2
07/05 20:40 4.6 68 4.5 -0.8 30 37 1018 0 11.2 22.0 27.7 72.0 54.5 183.1
07/05 20:30 4.8 67 4.5 -0.8 35 50 1017.9 0 11.2 22.0 27.7 71.8 54.3 182.6
07/05 20:20 4.7 67 4.47 -0.9 30 35 1018.2 0 11.1 21.9 27.6 71.6 54.0 181.6
07/05 20:10 4.9 66 4.46 -0.9 35 48 1018.1 0 11.1 21.9 27.5 71.4 53.8 180.7
07/05 20:00 4.9 66 4.46 -0.9 35 48 1018.2 0 11.1 21.9 27.5 71.4 53.8 180.7
07/05 19:50 5.1 65 4.45 -0.9 41 48 1018.2 0 11.1 21.8 27.4 71.1 53.5 179.8

Last Refresh: 08-May-2026 12:08:50

Bureau of Meteorology